AFR75D LFBO-LFPG
Flight info
| Callsign | AFR75D |
|---|---|
| Flight time | 1h 11m |
| Altitude | 34000 |
| Route | FISTO DCT POI/N0475F300 DCT PEPAX UT182 KEPER |
| Aircraft | B789/H-SDE1E2E3FGHIJ2J3J4J5M1RWXY/LB1D1 |
Departure
| Time | 2026-04-30 19:20 |
|---|---|
| Airport | Toulouse-Blagnac Airport (LFBO) |
Arrival
| Time | 2026-04-30 20:31 |
|---|---|
| Airport | Charles de Gaulle International Airport (LFPG) |
| Time | Latitude | Longitude | Altitude | Speed | Heading |
|---|---|---|---|---|---|
| 2026-04-30 18:35 | 43.62825 | 1.37614 | 499 ft | 0 kts | 53° |
| 2026-04-30 18:37 | 43.62833 | 1.37629 | 499 ft | 0 kts | 53° |
| 2026-04-30 18:38 | 43.65037 | 1.35532 | 499 ft | 0 kts | 84° |
| 2026-04-30 18:39 | 43.61367 | 1.36383 | 499 ft | 0 kts | 272° |
| 2026-04-30 19:04 | 43.61366 | 1.36420 | 499 ft | 4 kts | 277° |
| 2026-04-30 19:05 | 43.61354 | 1.36492 | 499 ft | 4 kts | 292° |
| 2026-04-30 19:05 | 43.61324 | 1.36535 | 499 ft | 1 kts | 17° |
| 2026-04-30 19:06 | 43.61319 | 1.36533 | 499 ft | 0 kts | 17° |
| 2026-04-30 19:08 | 43.61322 | 1.36534 | 499 ft | 1 kts | 17° |
| 2026-04-30 19:08 | 43.61332 | 1.36538 | 499 ft | 2 kts | 17° |
| 2026-04-30 19:09 | 43.61366 | 1.36553 | 499 ft | 3 kts | 17° |
| 2026-04-30 19:09 | 43.61388 | 1.36562 | 499 ft | 4 kts | 17° |
| 2026-04-30 19:09 | 43.61414 | 1.36573 | 499 ft | 4 kts | 17° |
| 2026-04-30 19:10 | 43.61480 | 1.36601 | 499 ft | 6 kts | 17° |
| 2026-04-30 19:10 | 43.61558 | 1.36633 | 499 ft | 6 kts | 17° |
| 2026-04-30 19:11 | 43.61596 | 1.36644 | 499 ft | 4 kts | 354° |
| 2026-04-30 19:11 | 43.61678 | 1.36624 | 499 ft | 8 kts | 350° |
| 2026-04-30 19:11 | 43.61754 | 1.36591 | 499 ft | 14 kts | 348° |
| 2026-04-30 19:12 | 43.61871 | 1.36592 | 499 ft | 20 kts | 3° |
| 2026-04-30 19:12 | 43.62024 | 1.36602 | 499 ft | 22 kts | 359° |
| 2026-04-30 19:12 | 43.62188 | 1.36576 | 499 ft | 25 kts | 341° |
| 2026-04-30 19:13 | 43.62478 | 1.36294 | 499 ft | 26 kts | 323° |
| 2026-04-30 19:13 | 43.62762 | 1.35998 | 499 ft | 25 kts | 322° |
| 2026-04-30 19:13 | 43.62902 | 1.35850 | 499 ft | 25 kts | 322° |
| 2026-04-30 19:14 | 43.63041 | 1.35704 | 499 ft | 25 kts | 323° |
| 2026-04-30 19:14 | 43.63183 | 1.35557 | 499 ft | 25 kts | 323° |
| 2026-04-30 19:14 | 43.63323 | 1.35411 | 499 ft | 25 kts | 323° |
| 2026-04-30 19:14 | 43.63465 | 1.35266 | 499 ft | 25 kts | 323° |
| 2026-04-30 19:15 | 43.63606 | 1.35121 | 499 ft | 25 kts | 323° |
| 2026-04-30 19:15 | 43.63885 | 1.34832 | 499 ft | 24 kts | 323° |
| 2026-04-30 19:15 | 43.64018 | 1.34694 | 499 ft | 24 kts | 322° |
| 2026-04-30 19:16 | 43.64146 | 1.34560 | 499 ft | 23 kts | 323° |
| 2026-04-30 19:16 | 43.64267 | 1.34453 | 499 ft | 17 kts | 348° |
| 2026-04-30 19:16 | 43.64305 | 1.34459 | 499 ft | 1 kts | 27° |
| 2026-04-30 19:17 | 43.64315 | 1.34467 | 499 ft | 1 kts | 36° |
| 2026-04-30 19:17 | 43.64357 | 1.34530 | 499 ft | 9 kts | 53° |
| 2026-04-30 19:17 | 43.64382 | 1.34605 | 499 ft | 4 kts | 97° |
| 2026-04-30 19:18 | 43.64357 | 1.34649 | 499 ft | 7 kts | 137° |
| 2026-04-30 19:18 | 43.64322 | 1.34686 | 499 ft | 0 kts | 142° |
| 2026-04-30 19:19 | 43.64262 | 1.34748 | 499 ft | 33 kts | 143° |
| 2026-04-30 19:19 | 43.63129 | 1.35921 | 511 ft | 162 kts | 141° |
| 2026-04-30 19:20 | 43.62203 | 1.36852 | 989 ft | 162 kts | 142° |
| 2026-04-30 19:20 | 43.61290 | 1.37794 | 1599 ft | 166 kts | 139° |
| 2026-04-30 19:20 | 43.59478 | 1.39761 | 2990 ft | 174 kts | 139° |
| 2026-04-30 19:21 | 43.58465 | 1.40892 | 3374 ft | 201 kts | 140° |
| 2026-04-30 19:21 | 43.55829 | 1.43330 | 4294 ft | 253 kts | 162° |
| 2026-04-30 19:22 | 43.52458 | 1.42403 | 6331 ft | 264 kts | 217° |
| 2026-04-30 19:22 | 43.51959 | 1.34961 | 7154 ft | 299 kts | 311° |
| 2026-04-30 19:23 | 43.57408 | 1.32119 | 9944 ft | 293 kts | 1° |
| 2026-04-30 19:24 | 43.61732 | 1.31817 | 10813 ft | 337 kts | 356° |
| 2026-04-30 19:24 | 43.64151 | 1.31459 | 11213 ft | 356 kts | 356° |
| 2026-04-30 19:24 | 43.69093 | 1.30853 | 12993 ft | 359 kts | 358° |
| 2026-04-30 19:25 | 43.76660 | 1.30090 | 15370 ft | 368 kts | 358° |
| 2026-04-30 19:26 | 43.81813 | 1.29542 | 16827 ft | 374 kts | 358° |
| 2026-04-30 19:26 | 43.87009 | 1.29000 | 18199 ft | 379 kts | 358° |
| 2026-04-30 19:26 | 43.89659 | 1.28721 | 18815 ft | 382 kts | 358° |
| 2026-04-30 19:27 | 43.95010 | 1.28157 | 20011 ft | 389 kts | 358° |
| 2026-04-30 19:27 | 44.00455 | 1.27583 | 21116 ft | 396 kts | 358° |
| 2026-04-30 19:28 | 44.03207 | 1.27291 | 21631 ft | 399 kts | 359° |
| 2026-04-30 19:28 | 44.08793 | 1.26697 | 22593 ft | 405 kts | 360° |
| 2026-04-30 19:29 | 44.14465 | 1.26103 | 23510 ft | 411 kts | 359° |
| 2026-04-30 19:29 | 44.17325 | 1.25797 | 23973 ft | 413 kts | 359° |
| 2026-04-30 19:30 | 44.26011 | 1.24874 | 25229 ft | 421 kts | 360° |
| 2026-04-30 19:30 | 44.31892 | 1.24247 | 26034 ft | 425 kts | 360° |
| 2026-04-30 19:31 | 44.37831 | 1.23613 | 26789 ft | 429 kts | 360° |
| 2026-04-30 19:31 | 44.40816 | 1.23292 | 27133 ft | 432 kts | 0° |
| 2026-04-30 19:31 | 44.46821 | 1.22385 | 27811 ft | 440 kts | 350° |
| 2026-04-30 19:32 | 44.49789 | 1.21200 | 28095 ft | 445 kts | 348° |
| 2026-04-30 19:32 | 44.52724 | 1.19961 | 28438 ft | 446 kts | 348° |
| 2026-04-30 19:32 | 44.55703 | 1.18679 | 28740 ft | 449 kts | 348° |
| 2026-04-30 19:32 | 44.58699 | 1.17409 | 29039 ft | 450 kts | 348° |
| 2026-04-30 19:33 | 44.61706 | 1.16146 | 29367 ft | 452 kts | 348° |
| 2026-04-30 19:33 | 44.64725 | 1.14871 | 29612 ft | 455 kts | 348° |
| 2026-04-30 19:33 | 44.67761 | 1.13576 | 29926 ft | 456 kts | 348° |
| 2026-04-30 19:33 | 44.70806 | 1.12279 | 30206 ft | 457 kts | 348° |
| 2026-04-30 19:34 | 44.73863 | 1.10981 | 30462 ft | 460 kts | 348° |
| 2026-04-30 19:34 | 44.76937 | 1.09675 | 30723 ft | 462 kts | 348° |
| 2026-04-30 19:34 | 44.83111 | 1.07038 | 31232 ft | 465 kts | 348° |
| 2026-04-30 19:35 | 44.86220 | 1.05710 | 31451 ft | 468 kts | 348° |
| 2026-04-30 19:35 | 44.89339 | 1.04376 | 31713 ft | 469 kts | 348° |
| 2026-04-30 19:35 | 44.92514 | 1.03015 | 31927 ft | 471 kts | 348° |
| 2026-04-30 19:35 | 44.95656 | 1.01667 | 32159 ft | 473 kts | 347° |
| 2026-04-30 19:36 | 44.98811 | 1.00314 | 32372 ft | 475 kts | 347° |
| 2026-04-30 19:36 | 45.00951 | 0.99394 | 32518 ft | 476 kts | 347° |
| 2026-04-30 19:36 | 45.08325 | 0.96218 | 33122 ft | 476 kts | 347° |
| 2026-04-30 19:37 | 45.10467 | 0.95295 | 33321 ft | 476 kts | 347° |
| 2026-04-30 19:37 | 45.13591 | 0.93947 | 33586 ft | 475 kts | 347° |
| 2026-04-30 19:37 | 45.16801 | 0.92558 | 33855 ft | 475 kts | 347° |
| 2026-04-30 19:37 | 45.19913 | 0.91213 | 34111 ft | 475 kts | 347° |
| 2026-04-30 19:38 | 45.26282 | 0.88454 | 34097 ft | 478 kts | 347° |
| 2026-04-30 19:38 | 45.32644 | 0.85687 | 34092 ft | 474 kts | 348° |
| 2026-04-30 19:39 | 45.38942 | 0.82950 | 34101 ft | 473 kts | 348° |
| 2026-04-30 19:39 | 45.45247 | 0.80194 | 34104 ft | 474 kts | 348° |
| 2026-04-30 19:40 | 45.51565 | 0.77432 | 34104 ft | 474 kts | 348° |
| 2026-04-30 19:40 | 45.57833 | 0.74683 | 34116 ft | 474 kts | 348° |
| 2026-04-30 19:41 | 45.64141 | 0.71911 | 34116 ft | 475 kts | 348° |
| 2026-04-30 19:41 | 45.70458 | 0.69127 | 34118 ft | 475 kts | 348° |
| 2026-04-30 19:42 | 45.76766 | 0.66342 | 34124 ft | 474 kts | 348° |
| 2026-04-30 19:42 | 45.83112 | 0.63532 | 34125 ft | 474 kts | 348° |
| 2026-04-30 19:43 | 45.89384 | 0.60749 | 34126 ft | 474 kts | 348° |
| 2026-04-30 19:44 | 45.98847 | 0.56538 | 34133 ft | 474 kts | 348° |
| 2026-04-30 19:44 | 46.05150 | 0.53724 | 34134 ft | 473 kts | 348° |
| 2026-04-30 19:45 | 46.11429 | 0.50915 | 34132 ft | 472 kts | 348° |
| 2026-04-30 19:45 | 46.17689 | 0.48108 | 34143 ft | 471 kts | 348° |
| 2026-04-30 19:46 | 46.23958 | 0.45290 | 34143 ft | 472 kts | 348° |
| 2026-04-30 19:46 | 46.30120 | 0.42512 | 34142 ft | 472 kts | 348° |
| 2026-04-30 19:47 | 46.36433 | 0.39661 | 34152 ft | 472 kts | 348° |
| 2026-04-30 19:47 | 46.42692 | 0.36827 | 34154 ft | 471 kts | 348° |
| 2026-04-30 19:48 | 46.48958 | 0.33983 | 34155 ft | 472 kts | 348° |
| 2026-04-30 19:48 | 46.55235 | 0.31284 | 34174 ft | 466 kts | 356° |
| 2026-04-30 19:49 | 46.61614 | 0.30985 | 34176 ft | 454 kts | 13° |
| 2026-04-30 19:49 | 46.70924 | 0.33739 | 34167 ft | 453 kts | 17° |
| 2026-04-30 19:50 | 46.77103 | 0.35648 | 34167 ft | 454 kts | 16° |
| 2026-04-30 19:50 | 46.83284 | 0.37545 | 34169 ft | 454 kts | 16° |
| 2026-04-30 19:51 | 46.89481 | 0.39463 | 34171 ft | 454 kts | 16° |
| 2026-04-30 19:51 | 46.95659 | 0.41372 | 34172 ft | 454 kts | 16° |
| 2026-04-30 19:52 | 47.01853 | 0.43295 | 34181 ft | 455 kts | 16° |
| 2026-04-30 19:52 | 47.08119 | 0.44750 | 34193 ft | 461 kts | 5° |
| 2026-04-30 19:53 | 47.14551 | 0.43691 | 34198 ft | 467 kts | 355° |
| 2026-04-30 19:53 | 47.20957 | 0.42137 | 34200 ft | 466 kts | 355° |
| 2026-04-30 19:54 | 47.27359 | 0.40570 | 34200 ft | 466 kts | 355° |
| 2026-04-30 19:54 | 47.30548 | 0.39793 | 34048 ft | 460 kts | 355° |
| 2026-04-30 19:54 | 47.33723 | 0.39016 | 33132 ft | 465 kts | 355° |
| 2026-04-30 19:55 | 47.36902 | 0.38238 | 32518 ft | 462 kts | 355° |
| 2026-04-30 19:55 | 47.40025 | 0.37470 | 31899 ft | 459 kts | 355° |
| 2026-04-30 19:55 | 47.43159 | 0.36699 | 31283 ft | 455 kts | 355° |
| 2026-04-30 19:55 | 47.46220 | 0.35947 | 30688 ft | 451 kts | 355° |
| 2026-04-30 19:56 | 47.49365 | 0.35173 | 30068 ft | 448 kts | 355° |
| 2026-04-30 19:56 | 47.52422 | 0.34414 | 29465 ft | 444 kts | 355° |
| 2026-04-30 19:56 | 47.55457 | 0.33659 | 28879 ft | 440 kts | 355° |
| 2026-04-30 19:56 | 47.58460 | 0.32915 | 28297 ft | 436 kts | 355° |
| 2026-04-30 19:57 | 47.61435 | 0.32176 | 27719 ft | 432 kts | 355° |
| 2026-04-30 19:57 | 47.64385 | 0.31441 | 27157 ft | 428 kts | 355° |
| 2026-04-30 19:57 | 47.67306 | 0.30713 | 26597 ft | 423 kts | 355° |
| 2026-04-30 19:57 | 47.70201 | 0.29992 | 26048 ft | 419 kts | 355° |
| 2026-04-30 19:58 | 47.73058 | 0.29278 | 25505 ft | 415 kts | 355° |
| 2026-04-30 19:58 | 47.75894 | 0.28642 | 24969 ft | 407 kts | 1° |
| 2026-04-30 19:58 | 47.78674 | 0.28709 | 24459 ft | 396 kts | 12° |
| 2026-04-30 19:58 | 47.81372 | 0.29536 | 24032 ft | 384 kts | 22° |
| 2026-04-30 19:59 | 47.83809 | 0.30997 | 23763 ft | 374 kts | 32° |
| 2026-04-30 19:59 | 47.86015 | 0.33043 | 23487 ft | 375 kts | 38° |
| 2026-04-30 19:59 | 47.90327 | 0.37530 | 22880 ft | 376 kts | 38° |
| 2026-04-30 20:00 | 47.92440 | 0.39747 | 22581 ft | 367 kts | 38° |
| 2026-04-30 20:00 | 47.94506 | 0.41919 | 22293 ft | 360 kts | 38° |
| 2026-04-30 20:00 | 47.96546 | 0.44059 | 22011 ft | 355 kts | 38° |
| 2026-04-30 20:00 | 47.98562 | 0.46173 | 21735 ft | 353 kts | 38° |
| 2026-04-30 20:01 | 48.02589 | 0.50406 | 21183 ft | 354 kts | 38° |
| 2026-04-30 20:01 | 48.04582 | 0.52504 | 20912 ft | 354 kts | 38° |
| 2026-04-30 20:01 | 48.06592 | 0.54622 | 20632 ft | 353 kts | 38° |
| 2026-04-30 20:02 | 48.10616 | 0.58865 | 20083 ft | 350 kts | 38° |
| 2026-04-30 20:02 | 48.12598 | 0.60962 | 19817 ft | 348 kts | 38° |
| 2026-04-30 20:03 | 48.16546 | 0.65139 | 19275 ft | 345 kts | 38° |
| 2026-04-30 20:03 | 48.18480 | 0.67187 | 19006 ft | 344 kts | 38° |
| 2026-04-30 20:03 | 48.20432 | 0.69258 | 18736 ft | 342 kts | 38° |
| 2026-04-30 20:03 | 48.22370 | 0.71318 | 18470 ft | 341 kts | 38° |
| 2026-04-30 20:04 | 48.24303 | 0.73373 | 18205 ft | 341 kts | 38° |
| 2026-04-30 20:04 | 48.26238 | 0.75429 | 17942 ft | 340 kts | 38° |
| 2026-04-30 20:04 | 48.28190 | 0.77505 | 17676 ft | 339 kts | 38° |
| 2026-04-30 20:05 | 48.32021 | 0.81592 | 17158 ft | 337 kts | 38° |
| 2026-04-30 20:05 | 48.33895 | 0.83698 | 16887 ft | 333 kts | 46° |
| 2026-04-30 20:05 | 48.36401 | 0.89419 | 16379 ft | 329 kts | 63° |
| 2026-04-30 20:06 | 48.37450 | 0.92426 | 16122 ft | 329 kts | 63° |
| 2026-04-30 20:06 | 48.38506 | 0.95476 | 15842 ft | 327 kts | 64° |
| 2026-04-30 20:06 | 48.39557 | 0.98515 | 15488 ft | 327 kts | 64° |
| 2026-04-30 20:06 | 48.40602 | 1.01533 | 15212 ft | 324 kts | 64° |
| 2026-04-30 20:07 | 48.41303 | 1.03558 | 15036 ft | 323 kts | 64° |
| 2026-04-30 20:07 | 48.42348 | 1.06586 | 14348 ft | 329 kts | 64° |
| 2026-04-30 20:07 | 48.44415 | 1.12596 | 13610 ft | 314 kts | 64° |
| 2026-04-30 20:08 | 48.45403 | 1.15467 | 13356 ft | 303 kts | 64° |
| 2026-04-30 20:08 | 48.46353 | 1.18236 | 13136 ft | 292 kts | 64° |
| 2026-04-30 20:08 | 48.47270 | 1.20906 | 12924 ft | 282 kts | 64° |
| 2026-04-30 20:08 | 48.48165 | 1.23522 | 12725 ft | 279 kts | 64° |
| 2026-04-30 20:09 | 48.49055 | 1.26122 | 12538 ft | 280 kts | 64° |
| 2026-04-30 20:09 | 48.49946 | 1.28721 | 12344 ft | 278 kts | 64° |
| 2026-04-30 20:09 | 48.51722 | 1.33933 | 12063 ft | 276 kts | 64° |
| 2026-04-30 20:10 | 48.53500 | 1.39097 | 12059 ft | 278 kts | 64° |
| 2026-04-30 20:10 | 48.54524 | 1.41562 | 12062 ft | 280 kts | 47° |
| 2026-04-30 20:10 | 48.56089 | 1.43374 | 12078 ft | 286 kts | 36° |
| 2026-04-30 20:11 | 48.59568 | 1.46369 | 12078 ft | 288 kts | 32° |
| 2026-04-30 20:11 | 48.61334 | 1.47806 | 12078 ft | 288 kts | 31° |
| 2026-04-30 20:11 | 48.63094 | 1.49226 | 12032 ft | 283 kts | 31° |
| 2026-04-30 20:12 | 48.66589 | 1.52044 | 11068 ft | 283 kts | 31° |
| 2026-04-30 20:12 | 48.68326 | 1.53446 | 10597 ft | 282 kts | 31° |
| 2026-04-30 20:12 | 48.70046 | 1.54842 | 10136 ft | 280 kts | 31° |
| 2026-04-30 20:13 | 48.71759 | 1.56236 | 9757 ft | 276 kts | 31° |
| 2026-04-30 20:13 | 48.73400 | 1.57562 | 9749 ft | 258 kts | 32° |
| 2026-04-30 20:13 | 48.74939 | 1.58796 | 9676 ft | 243 kts | 31° |
| 2026-04-30 20:13 | 48.76437 | 1.59995 | 9248 ft | 244 kts | 31° |
| 2026-04-30 20:14 | 48.77919 | 1.61176 | 9063 ft | 238 kts | 31° |
| 2026-04-30 20:14 | 48.79389 | 1.62353 | 8910 ft | 240 kts | 32° |
| 2026-04-30 20:14 | 48.80864 | 1.63536 | 8772 ft | 239 kts | 31° |
| 2026-04-30 20:14 | 48.82337 | 1.64717 | 8622 ft | 240 kts | 31° |
| 2026-04-30 20:15 | 48.83814 | 1.65890 | 8483 ft | 239 kts | 29° |
| 2026-04-30 20:15 | 48.85453 | 1.66416 | 8327 ft | 246 kts | 6° |
| 2026-04-30 20:15 | 48.87175 | 1.66398 | 8195 ft | 248 kts | 2° |
| 2026-04-30 20:15 | 48.88906 | 1.66286 | 8089 ft | 249 kts | 1° |
| 2026-04-30 20:16 | 48.90631 | 1.66164 | 7988 ft | 248 kts | 1° |
| 2026-04-30 20:16 | 48.92348 | 1.66039 | 7865 ft | 247 kts | 1° |
| 2026-04-30 20:16 | 48.94064 | 1.65912 | 7757 ft | 247 kts | 1° |
| 2026-04-30 20:16 | 48.95780 | 1.65780 | 7647 ft | 247 kts | 1° |
| 2026-04-30 20:17 | 48.97492 | 1.65649 | 7541 ft | 246 kts | 1° |
| 2026-04-30 20:17 | 48.99200 | 1.65522 | 7439 ft | 246 kts | 1° |
| 2026-04-30 20:17 | 49.00907 | 1.65393 | 7326 ft | 245 kts | 1° |
| 2026-04-30 20:17 | 49.02551 | 1.65526 | 7234 ft | 231 kts | 26° |
| 2026-04-30 20:18 | 49.03772 | 1.67030 | 7146 ft | 225 kts | 56° |
| 2026-04-30 20:18 | 49.04489 | 1.69094 | 7247 ft | 221 kts | 76° |
| 2026-04-30 20:18 | 49.04617 | 1.71444 | 7327 ft | 226 kts | 96° |
| 2026-04-30 20:18 | 49.04225 | 1.73703 | 7381 ft | 217 kts | 106° |
| 2026-04-30 20:19 | 49.03767 | 1.75935 | 7433 ft | 225 kts | 104° |
| 2026-04-30 20:19 | 49.03347 | 1.78246 | 7469 ft | 224 kts | 103° |
| 2026-04-30 20:19 | 49.02953 | 1.80492 | 7488 ft | 220 kts | 103° |
| 2026-04-30 20:19 | 49.02548 | 1.82791 | 7289 ft | 226 kts | 104° |
| 2026-04-30 20:20 | 49.02138 | 1.85076 | 7046 ft | 222 kts | 104° |
| 2026-04-30 20:20 | 49.01732 | 1.87336 | 6800 ft | 220 kts | 104° |
| 2026-04-30 20:20 | 49.01331 | 1.89579 | 6593 ft | 219 kts | 104° |
| 2026-04-30 20:20 | 49.00934 | 1.91807 | 6389 ft | 217 kts | 104° |
| 2026-04-30 20:21 | 49.00534 | 1.94029 | 6189 ft | 217 kts | 104° |
| 2026-04-30 20:21 | 49.00142 | 1.96212 | 5984 ft | 209 kts | 104° |
| 2026-04-30 20:21 | 48.99764 | 1.98306 | 5760 ft | 201 kts | 104° |
| 2026-04-30 20:21 | 48.99403 | 2.00318 | 5544 ft | 193 kts | 103° |
| 2026-04-30 20:22 | 48.99025 | 2.02426 | 5304 ft | 184 kts | 103° |
| 2026-04-30 20:22 | 48.98711 | 2.04144 | 5106 ft | 179 kts | 103° |
| 2026-04-30 20:22 | 48.98389 | 2.05925 | 5082 ft | 172 kts | 103° |
| 2026-04-30 20:22 | 48.98069 | 2.07702 | 5084 ft | 175 kts | 103° |
| 2026-04-30 20:23 | 48.97743 | 2.09502 | 5089 ft | 176 kts | 103° |
| 2026-04-30 20:23 | 48.97414 | 2.11327 | 5094 ft | 177 kts | 103° |
| 2026-04-30 20:23 | 48.97128 | 2.13144 | 5093 ft | 177 kts | 98° |
| 2026-04-30 20:23 | 48.97086 | 2.14379 | 5078 ft | 177 kts | 88° |
| 2026-04-30 20:24 | 48.97175 | 2.16840 | 5076 ft | 171 kts | 85° |
| 2026-04-30 20:24 | 48.97271 | 2.18661 | 5078 ft | 170 kts | 85° |
| 2026-04-30 20:24 | 48.97371 | 2.20550 | 4925 ft | 173 kts | 85° |
| 2026-04-30 20:24 | 48.97465 | 2.22350 | 4698 ft | 170 kts | 85° |
| 2026-04-30 20:25 | 48.97646 | 2.25714 | 4258 ft | 155 kts | 85° |
| 2026-04-30 20:25 | 48.97737 | 2.27400 | 4054 ft | 153 kts | 84° |
| 2026-04-30 20:26 | 48.97904 | 2.30549 | 3673 ft | 151 kts | 84° |
| 2026-04-30 20:26 | 48.98076 | 2.33764 | 3264 ft | 150 kts | 84° |
| 2026-04-30 20:26 | 48.98160 | 2.35327 | 3063 ft | 146 kts | 84° |
| 2026-04-30 20:27 | 48.98297 | 2.37894 | 2741 ft | 145 kts | 84° |
| 2026-04-30 20:27 | 48.98488 | 2.41465 | 2293 ft | 146 kts | 83° |
| 2026-04-30 20:28 | 48.98644 | 2.44276 | 1872 ft | 145 kts | 83° |
| 2026-04-30 20:28 | 48.98795 | 2.47138 | 1475 ft | 145 kts | 82° |
| 2026-04-30 20:29 | 48.98962 | 2.50173 | 1137 ft | 141 kts | 84° |
| 2026-04-30 20:30 | 48.99177 | 2.54587 | 633 ft | 138 kts | 85° |
| 2026-04-30 20:30 | 48.99394 | 2.58466 | 361 ft | 71 kts | 85° |
| 2026-04-30 20:31 | 48.99536 | 2.59485 | 359 ft | 13 kts | 65° |
| 2026-04-30 20:32 | 48.99682 | 2.59681 | 360 ft | 9 kts | 1° |
| 2026-04-30 20:32 | 48.99826 | 2.59672 | 358 ft | 12 kts | 355° |
| 2026-04-30 20:33 | 48.99914 | 2.59661 | 359 ft | 13 kts | 355° |
| 2026-04-30 20:33 | 49.00064 | 2.59611 | 361 ft | 9 kts | 312° |
| 2026-04-30 20:33 | 49.00075 | 2.59526 | 359 ft | 9 kts | 269° |
| 2026-04-30 20:34 | 49.00065 | 2.59312 | 362 ft | 12 kts | 265° |
| 2026-04-30 20:34 | 49.00054 | 2.59096 | 359 ft | 0 kts | 265° |
| 2026-04-30 20:35 | 49.00054 | 2.59095 | 359 ft | 0 kts | 265° |
| 2026-04-30 20:36 | 49.00054 | 2.59093 | 365 ft | 1 kts | 265° |
| 2026-04-30 20:37 | 49.00053 | 2.59083 | 359 ft | 1 kts | 265° |
| 2026-04-30 20:37 | 49.00052 | 2.59063 | 362 ft | 2 kts | 265° |
| 2026-04-30 20:37 | 49.00051 | 2.59032 | 359 ft | 4 kts | 265° |
| 2026-04-30 20:37 | 49.00048 | 2.58982 | 359 ft | 6 kts | 265° |
| 2026-04-30 20:38 | 49.00044 | 2.58911 | 359 ft | 8 kts | 265° |
| 2026-04-30 20:38 | 49.00039 | 2.58814 | 359 ft | 10 kts | 265° |
| 2026-04-30 20:38 | 49.00033 | 2.58690 | 359 ft | 13 kts | 265° |
| 2026-04-30 20:39 | 49.00024 | 2.58390 | 359 ft | 12 kts | 287° |
| 2026-04-30 20:39 | 49.00078 | 2.58300 | 361 ft | 11 kts | 304° |
| 2026-04-30 20:39 | 49.00086 | 2.58188 | 360 ft | 12 kts | 266° |
| 2026-04-30 20:40 | 49.00071 | 2.57925 | 362 ft | 11 kts | 265° |
| 2026-04-30 20:40 | 49.00065 | 2.57816 | 360 ft | 9 kts | 265° |
| 2026-04-30 20:40 | 49.00072 | 2.57749 | 364 ft | 3 kts | 309° |
| 2026-04-30 20:41 | 49.00113 | 2.57728 | 360 ft | 3 kts | 346° |
| 2026-04-30 20:41 | 49.00124 | 2.57725 | 366 ft | 0 kts | 352° |
| 2026-04-30 20:41 | 49.00130 | 2.57723 | 360 ft | 1 kts | 352° |
| 2026-04-30 20:41 | 49.00134 | 2.57723 | 366 ft | 0 kts | 353° |